Hlavní strana
METAR-TAF:

METAR-TAF

Letiště :

Olney-Noble Airport

Olney-Noble, Illinois, Spojené státy americké

zeměpisná šířka: 38-43-19N, zeměpisná délka: 088-10-35W, výška: 147 m

Aktuální stav počasí

Zpráva byla vytvořena před 26 minutami, v 21:15 UTC
Severní vítr 3 kt
Teplota 8°C
Vlhkost vzduchu 49%
Tlak 1028 hPa
Viditelnost: 16.1 km
Jasno

METAR: KOLY 252115Z AUTO 36003KT 10SM CLR 08/M02 A3035 RMK AO2 T00811017

Čas: 15:41 (21:41 UTC)


TAF: chybějící

Stav a předpovědi počasí z více než 4 000 letišť (zprávy METAR a TAF).

Červené a žluté tečky na mapě představují dostupné meteorologické stanice.

Když kurzor umístíte na tečku, zobrazí se název stanice.

Pak kliknutím zobrazíte stav a předpověď počasí.

Chcete-li změnit mapu, kliknutím na zelené tlačítko se znaménkem +mapu přiblížíte, kliknutím na zelené tlačítko se znaménkem – mapu oddálíte a kliknutím na zelené šipky přejdete na sousední mapy.


METAR-TAF: